EZY41VP EGNS-EGGP
Flight info
| Callsign | EZY41VP |
|---|---|
| Flight time | 0h 19m |
| Altitude | 15000 |
| Route | TIMIS Q39 DANDI DCT PENIL |
| Aircraft | A319/M-SDE2E3FGIJ1RWXYZ/LB1 |
Departure
| Time | 2026-05-04 09:34 |
|---|---|
| Airport | Isle of Man Airport (EGNS) |
Arrival
| Time | 2026-05-04 09:53 |
|---|---|
| Airport | Liverpool John Lennon Airport (EGGP) |
| Time | Latitude | Longitude | Altitude | Speed | Heading |
|---|---|---|---|---|---|
| 2026-05-04 09:04 | 54.08601 | -4.63218 | 46 ft | 0 kts | 224° |
| 2026-05-04 09:25 | 54.08607 | -4.63207 | 46 ft | 4 kts | 218° |
| 2026-05-04 09:26 | 54.08630 | -4.63187 | 46 ft | 4 kts | 186° |
| 2026-05-04 09:26 | 54.08655 | -4.63191 | 46 ft | 4 kts | 154° |
| 2026-05-04 09:26 | 54.08672 | -4.63210 | 43 ft | 0 kts | 134° |
| 2026-05-04 09:29 | 54.08670 | -4.63206 | 44 ft | 1 kts | 134° |
| 2026-05-04 09:29 | 54.08656 | -4.63182 | 41 ft | 5 kts | 134° |
| 2026-05-04 09:29 | 54.08625 | -4.63126 | 46 ft | 7 kts | 133° |
| 2026-05-04 09:30 | 54.08587 | -4.63058 | 46 ft | 8 kts | 134° |
| 2026-05-04 09:30 | 54.08544 | -4.63025 | 46 ft | 7 kts | 166° |
| 2026-05-04 09:30 | 54.08487 | -4.63005 | 43 ft | 9 kts | 168° |
| 2026-05-04 09:30 | 54.08432 | -4.62985 | 43 ft | 7 kts | 174° |
| 2026-05-04 09:31 | 54.08407 | -4.63043 | 43 ft | 6 kts | 256° |
| 2026-05-04 09:31 | 54.08398 | -4.63122 | 43 ft | 7 kts | 259° |
| 2026-05-04 09:31 | 54.08385 | -4.63222 | 43 ft | 10 kts | 258° |
| 2026-05-04 09:31 | 54.08369 | -4.63347 | 43 ft | 11 kts | 258° |
| 2026-05-04 09:32 | 54.08352 | -4.63480 | 43 ft | 12 kts | 258° |
| 2026-05-04 09:32 | 54.08335 | -4.63607 | 47 ft | 10 kts | 249° |
| 2026-05-04 09:34 | 54.08502 | -4.61078 | 370 ft | 144 kts | 75° |
| 2026-05-04 09:34 | 54.08713 | -4.59421 | 1134 ft | 143 kts | 74° |
| 2026-05-04 09:34 | 54.08927 | -4.57668 | 1685 ft | 162 kts | 77° |
| 2026-05-04 09:34 | 54.08669 | -4.55638 | 2038 ft | 197 kts | 122° |
| 2026-05-04 09:35 | 54.07459 | -4.54239 | 2443 ft | 231 kts | 167° |
| 2026-05-04 09:35 | 54.05773 | -4.54317 | 3046 ft | 256 kts | 189° |
| 2026-05-04 09:35 | 54.03999 | -4.55073 | 3904 ft | 268 kts | 197° |
| 2026-05-04 09:35 | 54.02230 | -4.56042 | 4977 ft | 273 kts | 199° |
| 2026-05-04 09:37 | 53.90616 | -4.49118 | 11239 ft | 329 kts | 123° |
| 2026-05-04 09:37 | 53.89328 | -4.45892 | 12187 ft | 332 kts | 123° |
| 2026-05-04 09:38 | 53.88019 | -4.42628 | 13091 ft | 336 kts | 123° |
| 2026-05-04 09:38 | 53.86693 | -4.39345 | 13991 ft | 340 kts | 124° |
| 2026-05-04 09:38 | 53.85341 | -4.36025 | 14714 ft | 345 kts | 124° |
| 2026-05-04 09:38 | 53.83972 | -4.32678 | 14987 ft | 345 kts | 124° |
| 2026-05-04 09:39 | 53.82608 | -4.29348 | 15072 ft | 339 kts | 124° |
| 2026-05-04 09:39 | 53.81301 | -4.26152 | 15088 ft | 323 kts | 124° |
| 2026-05-04 09:39 | 53.80043 | -4.23081 | 15088 ft | 315 kts | 124° |
| 2026-05-04 09:39 | 53.78782 | -4.20002 | 15087 ft | 320 kts | 123° |
| 2026-05-04 09:40 | 53.77510 | -4.16906 | 15092 ft | 321 kts | 124° |
| 2026-05-04 09:40 | 53.76258 | -4.13781 | 15089 ft | 321 kts | 123° |
| 2026-05-04 09:40 | 53.75059 | -4.10648 | 15090 ft | 321 kts | 122° |
| 2026-05-04 09:40 | 53.73866 | -4.07463 | 15088 ft | 321 kts | 122° |
| 2026-05-04 09:41 | 53.72678 | -4.04269 | 15095 ft | 321 kts | 122° |
| 2026-05-04 09:42 | 53.63880 | -3.82522 | 13139 ft | 319 kts | 134° |
| 2026-05-04 09:43 | 53.62322 | -3.79877 | 12720 ft | 318 kts | 135° |
| 2026-05-04 09:43 | 53.60762 | -3.77243 | 12379 ft | 314 kts | 135° |
| 2026-05-04 09:43 | 53.59242 | -3.74685 | 12232 ft | 304 kts | 135° |
| 2026-05-04 09:43 | 53.57758 | -3.72202 | 11932 ft | 300 kts | 135° |
| 2026-05-04 09:44 | 53.56279 | -3.69735 | 11584 ft | 298 kts | 135° |
| 2026-05-04 09:44 | 53.54808 | -3.67287 | 11230 ft | 296 kts | 135° |
| 2026-05-04 09:44 | 53.53380 | -3.64805 | 10869 ft | 295 kts | 131° |
| 2026-05-04 09:46 | 53.45028 | -3.45812 | 8180 ft | 284 kts | 120° |
| 2026-05-04 09:46 | 53.44019 | -3.43026 | 7795 ft | 279 kts | 120° |
| 2026-05-04 09:46 | 53.43033 | -3.40305 | 7415 ft | 268 kts | 120° |
| 2026-05-04 09:47 | 53.42080 | -3.37691 | 7052 ft | 257 kts | 120° |
| 2026-05-04 09:47 | 53.41165 | -3.35187 | 6661 ft | 247 kts | 120° |
| 2026-05-04 09:49 | 53.35054 | -3.18578 | 3998 ft | 222 kts | 120° |
| 2026-05-04 09:49 | 53.34257 | -3.16410 | 3666 ft | 216 kts | 120° |
| 2026-05-04 09:49 | 53.33473 | -3.14286 | 3346 ft | 212 kts | 120° |
| 2026-05-04 09:51 | 53.32581 | -3.01631 | 1903 ft | 171 kts | 84° |
| 2026-05-04 09:51 | 53.32672 | -2.99704 | 1674 ft | 162 kts | 84° |
| 2026-05-04 09:51 | 53.32760 | -2.97862 | 1458 ft | 156 kts | 84° |
| 2026-05-04 09:51 | 53.32844 | -2.96079 | 1243 ft | 151 kts | 84° |
| 2026-05-04 09:52 | 53.32898 | -2.94933 | 1110 ft | 146 kts | 84° |
| 2026-05-04 09:52 | 53.32976 | -2.93282 | 906 ft | 139 kts | 84° |
| 2026-05-04 09:52 | 53.33049 | -2.91701 | 682 ft | 134 kts | 85° |
| 2026-05-04 09:52 | 53.33120 | -2.90177 | 514 ft | 131 kts | 86° |
| 2026-05-04 09:53 | 53.33217 | -2.88146 | 298 ft | 134 kts | 86° |
| 2026-05-04 09:53 | 53.33267 | -2.87104 | 201 ft | 136 kts | 86° |
| 2026-05-04 09:53 | 53.33332 | -2.85581 | 91 ft | 128 kts | 86° |
| 2026-05-04 09:53 | 53.33382 | -2.84587 | 91 ft | 43 kts | 85° |
| 2026-05-04 09:54 | 53.33396 | -2.84278 | 90 ft | 25 kts | 85° |
| 2026-05-04 09:54 | 53.33409 | -2.83995 | 90 ft | 24 kts | 85° |
| 2026-05-04 09:54 | 53.33421 | -2.83740 | 89 ft | 19 kts | 85° |
| 2026-05-04 09:54 | 53.33490 | -2.83628 | 91 ft | 17 kts | 354° |
| 2026-05-04 09:55 | 53.33573 | -2.83642 | 89 ft | 10 kts | 342° |
| 2026-05-04 09:55 | 53.33588 | -2.83747 | 89 ft | 11 kts | 265° |
| 2026-05-04 09:55 | 53.33580 | -2.83890 | 89 ft | 13 kts | 265° |
| 2026-05-04 09:55 | 53.33572 | -2.84047 | 89 ft | 14 kts | 265° |
| 2026-05-04 09:56 | 53.33565 | -2.84217 | 89 ft | 15 kts | 266° |
| 2026-05-04 09:56 | 53.33557 | -2.84399 | 89 ft | 16 kts | 265° |
| 2026-05-04 09:56 | 53.33548 | -2.84565 | 89 ft | 14 kts | 265° |
| 2026-05-04 09:56 | 53.33541 | -2.84731 | 89 ft | 15 kts | 265° |
| 2026-05-04 09:57 | 53.33532 | -2.84911 | 89 ft | 16 kts | 265° |
| 2026-05-04 09:57 | 53.33533 | -2.85036 | 89 ft | 8 kts | 293° |
| 2026-05-04 09:57 | 53.33579 | -2.85067 | 89 ft | 7 kts | 355° |
| 2026-05-04 09:57 | 53.33620 | -2.85073 | 89 ft | 5 kts | 349° |
| 2026-05-04 09:58 | 53.33632 | -2.85102 | 90 ft | 2 kts | 292° |
| 2026-05-04 09:58 | 53.33634 | -2.85131 | 89 ft | 3 kts | 268° |
| 2026-05-04 09:58 | 53.33632 | -2.85163 | 89 ft | 2 kts | 264° |
| 2026-05-04 10:00 | 53.33630 | -2.85201 | 89 ft | 0 kts | 265° |